< < Back
Terminal Aerodrome Forecast


Current Version              Previous Versions:   1  2  3  4  5  6  7  8  9  

Terminal Aerodrome Forecast

597
FTUS42 KJAX 271100
TAFJAX
TAF
KJAX 271121Z 2712/2812 24004KT P6SM SKC WS010/27035KT
     FM271400 30014G22KT P6SM FEW030
     FM272300 31005KT P6SM SKC=

Latest METAR

987
SAUS80 KWBC 271800
MTRJAX
METAR KJAX 271756Z 30015G21KT 10SM CLR 16/00 A3021 RMK AO2 SLP229
T01560000 10161 20050 58020 $


USA.gov is the U.S. government's official web portal to all federal, state and local government web resources and services.